CDT,Max TemperatureF,Mean TemperatureF,Min TemperatureF,Max Dew PointF,MeanDew PointF,Min DewpointF,Max Humidity, Mean Humidity, Min Humidity, Max Sea Level PressureIn, Mean Sea Level PressureIn, Min Sea Level PressureIn, Max VisibilityMiles, Mean VisibilityMiles, Min VisibilityMiles, Max Wind SpeedMPH, Mean Wind SpeedMPH, Max Gust SpeedMPH,PrecipitationIn, CloudCover, Events, WindDirDegrees
2013-7-1,89,79,68,59,56,53,68,50,31,29.97,29.94,29.88,10,10,10,15,7,22,0.00,1,,2
2013-7-2,94,82,69,60,54,47,66,44,21,30.04,29.98,29.94,10,10,10,15,6,18,0.00,1,,9
2013-7-3,96,83,69,64,57,43,73,46,18,30.02,29.96,29.88,10,10,10,20,5,24,0.00,2,Thunderstorm,91
2013-7-4,93,82,70,70,63,56,84,57,30,30.00,29.95,29.88,10,10,10,18,4,23,0.00,0,,151
2013-7-5,97,84,70,67,63,59,79,55,30,29.99,29.92,29.85,10,10,9,15,5,28,0.00,1,,107
2013-7-6,98,86,73,73,67,59,84,57,30,29.94,29.90,29.82,10,10,9,16,7,22,0.00,1,,112
2013-7-7,97,87,76,74,71,67,94,66,38,29.99,29.94,29.90,10,10,10,23,8,26,T,2,Rain,130
2013-7-8,93,84,74,75,72,67,94,71,47,30.13,30.07,29.99,10,9,2,18,9,82,0.09,4,Rain,163
2013-7-9,99,87,74,76,72,66,100,68,35,30.17,30.09,30.00,10,10,7,25,8,29,0.01,2,,169
2013-7-10,100,88,76,75,71,63,94,63,31,30.10,30.02,29.91,10,10,10,15,6,20,0.00,1,,177
2013-7-11,101,89,76,75,69,61,94,61,27,30.01,29.95,29.86,10,10,10,16,7,22,0.00,0,,178
2013-7-12,101,88,75,73,69,62,87,58,29,29.97,29.91,29.85,10,10,10,15,5,17,0.00,0,,174
2013-7-13,103,90,76,71,66,57,82,55,27,29.98,29.90,29.82,10,10,10,13,5,17,0.00,1,,61
2013-7-14,88,82,75,71,68,58,79,60,40,29.94,29.90,29.86,10,10,10,22,7,26,T,2,,98
2013-7-15,83,77,71,75,71,68,100,87,74,30.04,29.98,29.92,10,8,1,23,8,28,0.70,4,Rain-Thunderstorm,65
2013-7-16,93,83,73,74,72,69,100,75,49,30.13,30.07,30.02,10,9,2,23,7,32,0.58,3,Rain-Thunderstorm,95
2013-7-17,87,81,74,75,72,68,100,80,59,30.20,30.15,30.10,10,10,5,16,7,22,0.01,4,Rain-Thunderstorm,84
2013-7-18,96,85,73,74,69,63,94,65,36,30.16,30.08,29.98,10,10,10,13,5,18,0.00,0,,94
2013-7-19,94,84,74,73,71,69,94,72,49,30.08,30.01,29.94,10,10,10,22,5,33,0.00,1,,140
2013-7-20,90,83,75,74,72,68,94,74,53,29.99,29.94,29.88,10,10,8,22,7,30,T,2,Rain,155
2013-7-21,95,85,74,75,74,70,100,73,46,29.97,29.93,29.89,10,10,2,32,7,39,0.05,2,Rain-Thunderstorm,186
2013-7-22,97,88,78,77,74,70,97,71,45,30.01,29.97,29.90,10,10,8,20,11,26,0.00,4,,188
2013-7-23,98,89,79,76,72,62,91,61,31,30.03,29.96,29.86,10,10,8,20,11,24,0.00,4,,192
2013-7-24,95,86,76,75,72,68,94,69,43,30.00,29.93,29.87,10,10,8,17,6,23,0.00,2,,199
2013-7-25,99,88,76,75,70,63,94,64,33,30.03,29.99,29.95,10,10,7,16,7,22,0.00,0,,186
2013-7-26,98,88,77,75,72,64,94,65,35,30.04,29.97,29.85,10,10,8,20,10,25,0.00,1,,197
2013-7-27,90,84,77,75,71,68,82,69,55,29.96,29.93,29.88,10,10,9,16,8,22,0.00,6,,346
2013-7-28,99,87,74,74,71,67,82,60,38,29.96,29.92,29.85,10,10,10,18,10,23,0.00,4,,114
2013-7-29,100,89,77,76,70,55,94,60,25,30.05,29.99,29.95,10,10,7,24,13,32,0.00,3,,172
2013-7-30,101,89,76,75,70,56,94,59,24,30.13,30.06,29.97,10,10,8,20,12,25,0.00,3,,188
2013-7-31,102,89,76,74,69,59,94,61,27,30.11,30.03,29.91,10,10,7,15,6,18,0.00,2,,195